Latest Weather Observations for Oodnadatta

IDS60801

Issued at 12:01 pm CST Monday 24 July 2017 (issued every 30 minutes, with the page automatically refreshed every 10 minutes)

About weather observations | Map of weather stations | Latest weather observations for SA | Other Formats
Station Details ID: 017043 Name: OODNADATTA AIRPORT Lat: -27.56 Lon: 135.45 Height: 116.5 m
Data from the previous 72 hours. | See also: Recent months at Oodnadatta
Date/Time
CST
Temp
°C
App
Temp
°C
Dew
Point
°C
Rel
Hum
%
Delta-T
°C
Wind Press
QNH
hPa
Press
MSL
hPa
Rain since
9am
mm
Dir  Spd
km/h
Gust
km/h
Spd
kts
Gust
kts
24/12:00pm 24.1 17.4 -0.9 19 11.3 N 24 33 13 18 1021.4 1021.4 0.0
24/11:30am 23.1 16.7 -1.8 19 10.9 N 22 30 12 16 1022.1 1022.1 0.0
24/11:00am 22.3 15.5 -1.7 20 10.5 N 24 32 13 17 1022.1 1022.1 0.0
24/10:30am 21.1 16.5 -1.4 22 9.8 N 13 19 7 10 1022.8 1022.8 0.0
24/10:00am 20.0 14.2 -1.2 24 9.2 NNE 19 24 10 13 1022.6 1022.6 0.0
24/09:30am 18.6 14.0 -0.7 27 8.3 NE 13 19 7 10 1022.8 1022.8 0.0
24/09:00am 16.1 13.8 0.7 35 6.7 ENE 2 9 1 5 1022.8 1022.8 0.0
24/08:30am 15.2 12.1 -0.1 35 6.5 NE 6 9 3 5 1022.4 1022.4 0.0
24/08:00am 13.4 9.0 0.1 40 5.6 NE 13 15 7 8 1021.7 1021.7 0.0
24/07:30am 13.3 9.0 0.7 42 5.3 NNE 13 20 7 11 1021.2 1021.2 0.0
24/07:00am 12.8 8.9 0.9 44 5.1 NNE 11 17 6 9 1020.9 1020.9 0.0
24/06:30am 13.3 9.4 1.0 43 5.2 NNE 11 13 6 7 1020.7 1020.7 0.0
24/06:00am 12.6 9.1 1.0 45 4.9 NE 9 13 5 7 1020.2 1020.2 0.0
24/05:30am 13.7 10.8 1.7 44 5.2 ENE 6 11 3 6 1020.0 1020.0 0.0
24/05:00am 13.2 10.2 1.8 46 5.0 ENE 7 11 4 6 1019.8 1019.8 0.0
24/04:30am 13.7 10.0 2.3 46 5.0 ENE 11 13 6 7 1019.9 1019.9 0.0
24/04:00am 12.5 10.5 2.4 50 4.4 E 2 6 1 3 1019.8 1019.8 0.0
24/03:30am 12.4 9.5 1.7 48 4.6 E 6 7 3 4 1019.7 1019.7 0.0
24/03:00am 12.4 9.9 1.7 48 4.6 E 4 7 2 4 1019.9 1019.9 0.0
24/02:30am 13.6 9.1 1.9 45 5.1 ENE 15 17 8 9 1019.8 1019.8 0.0
24/02:00am 14.7 9.5 2.6 44 5.4 ENE 19 22 10 12 1019.9 1019.9 0.0
24/01:30am 14.4 9.9 2.3 44 5.4 ENE 15 17 8 9 1020.1 1020.1 0.0
24/01:00am 14.6 9.7 2.2 43 5.5 E 17 19 9 10 1020.2 1020.2 0.0
24/12:30am 14.6 9.7 1.8 42 5.6 E 17 19 9 10 1020.3 1020.3 0.0
24/12:00am 15.0 10.9 2.2 42 5.7 E 13 19 7 10 1020.5 1020.5 0.0
 
Date/Time
CST
Temp
°C
App
Temp
°C
Dew
Point
°C
Rel
Hum
%
Delta-T
°C
Wind Press
QNH
hPa
Press
MSL
hPa
Rain since
9am
mm
Dir  Spd
km/h
Gust
km/h
Spd
kts
Gust
kts
23/11:30pm 15.6 11.0 1.7 39 6.1 E 15 19 8 10 1020.5 1020.5 0.0
23/11:00pm 15.5 10.5 1.6 39 6.1 E 17 20 9 11 1020.4 1020.4 0.0
23/10:30pm 14.5 9.3 0.4 38 6.0 ESE 17 19 9 10 1020.6 1020.6 0.0
23/10:00pm 15.1 9.9 0.2 36 6.4 ESE 17 17 9 9 1020.7 1020.7 0.0
23/09:30pm 15.5 10.2 -0.7 33 6.8 ESE 17 19 9 10 1020.4 1020.4 0.0
23/09:00pm 17.0 12.9 -0.2 31 7.4 E 11 13 6 7 1020.5 1020.5 0.0
23/08:30pm 17.7 13.6 -0.1 30 7.7 SSE 11 13 6 7 1020.2 1020.2 0.0
23/08:00pm 18.5 14.8 0.2 29 8.1 SSE 9 11 5 6 1019.8 1019.8 0.0
23/07:30pm 19.3 14.5 -0.1 27 8.5 SSE 15 15 8 8 1019.5 1019.5 0.0
23/07:00pm 21.1 16.3 0.3 25 9.4 SSE 15 17 8 9 1019.1 1019.2 0.0
23/06:30pm 22.1 18.5 0.6 24 9.8 SE 9 9 5 5 1018.7 1018.8 0.0
23/06:00pm 23.9 20.6 0.3 21 10.9 E 7 9 4 5 1018.4 1018.5 0.0
23/05:30pm 25.8 23.4 -0.3 18 12.1 E 2 7 1 4 1018.3 1018.4 0.0
23/05:00pm 26.5 24.1 -0.5 17 12.5 ENE 2 7 1 4 1018.3 1018.4 0.0
23/04:30pm 26.9 23.7 -0.2 17 12.6 S 6 9 3 5 1018.4 1018.5 0.0
23/04:00pm 26.9 23.2 -0.2 17 12.7 S 9 15 5 8 1018.3 1018.4 0.0
23/03:30pm 26.7 23.3 -0.3 17 12.6 SSW 7 15 4 8 1018.3 1018.4 0.0
23/03:00pm 26.9 22.8 -0.2 17 12.6 SSW 11 20 6 11 1018.2 1018.3 0.0
23/02:30pm 26.7 22.6 -0.3 17 12.6 SW 11 15 6 8 1018.5 1018.6 0.0
23/02:00pm 26.9 23.2 -0.2 17 12.7 SW 9 17 5 9 1018.7 1018.8 0.0
23/01:30pm 26.5 22.0 -0.5 17 12.5 WSW 13 20 7 11 1019.0 1019.1 0.0
23/01:00pm 26.0 21.0 -0.9 17 12.3 W 15 24 8 13 1019.3 1019.4 0.0
23/12:30pm 25.8 20.9 -0.3 18 12.0 WNW 15 24 8 13 1019.8 1019.8 0.0
23/12:00pm 24.9 19.3 -0.3 19 11.5 NW 19 28 10 15 1020.4 1020.4 0.0
23/11:30am 23.9 18.2 -0.4 20 11.0 WNW 19 26 10 14 1021.0 1021.0 0.0
23/11:00am 22.7 17.3 -1.4 20 10.7 WNW 17 26 9 14 1021.2 1021.2 0.0
23/10:30am 21.3 17.4 -1.3 22 9.9 WNW 9 17 5 9 1021.6 1021.6 0.0
23/10:00am 19.0 15.6 -0.9 26 8.6 NNW 7 11 4 6 1021.7 1021.7 0.0
23/09:30am 16.1 12.3 -1.0 31 7.2 NNE 9 11 5 6 1021.6 1021.6 0.0
23/09:00am 13.2 9.9 -1.2 37 5.8 NNE 6 9 3 5 1021.5 1021.5 0.0
23/08:30am 10.9 8.7 -1.5 42 4.9 CALM 0 0 0 0 1021.2 1021.2 0.0
23/08:00am 8.8 6.6 -1.9 47 4.1 CALM 0 0 0 0 1020.8 1020.8 0.0
23/07:30am 6.9 3.8 -2.3 52 3.4 NE 4 6 2 3 1020.7 1020.7 0.0
23/07:00am 8.9 5.3 -2.1 46 4.2 NNE 7 11 4 6 1020.3 1020.3 0.0
23/06:30am 9.0 4.7 -1.7 47 4.1 NE 11 13 6 7 1020.1 1020.1 0.0
23/06:00am 8.9 5.5 -1.8 47 4.1 N 6 9 3 5 1020.0 1020.0 0.0
23/05:30am 9.5 6.9 -1.8 45 4.3 N 2 7 1 4 1019.8 1019.8 0.0
23/05:00am 9.4 6.4 -2.2 44 4.4 N 4 9 2 5 1019.5 1019.5 0.0
23/04:30am 10.2 5.9 -1.8 43 4.6 NNW 11 13 6 7 1019.1 1019.2 0.0
23/04:00am 11.1 6.8 -1.6 41 5.0 NW 11 13 6 7 1019.1 1019.2 0.0
23/03:30am 11.2 6.9 -1.9 40 5.1 NNW 11 13 6 7 1018.9 1019.0 0.0
23/03:00am 11.7 7.4 -1.4 40 5.2 NNW 11 13 6 7 1018.9 1019.0 0.0
23/02:30am 12.3 7.6 -1.6 38 5.5 NNW 13 13 7 7 1018.9 1019.0 0.0
23/02:00am 11.9 7.6 -1.6 39 5.4 NW 11 13 6 7 1018.9 1019.0 0.0
23/01:30am 13.8 9.5 -1.8 34 6.3 NNW 11 20 6 11 1018.9 1019.0 0.0
23/01:00am 15.5 11.6 -1.5 31 7.0 NNW 9 15 5 8 1018.6 1018.7 0.0
23/12:30am 16.2 10.4 -1.4 30 7.3 N 19 24 10 13 1018.4 1018.5 0.0
23/12:00am 15.9 10.5 -1.6 30 7.2 N 17 22 9 12 1018.4 1018.5 0.0
 
Date/Time
CST
Temp
°C
App
Temp
°C
Dew
Point
°C
Rel
Hum
%
Delta-T
°C
Wind Press
QNH
hPa
Press
MSL
hPa
Rain since
9am
mm
Dir  Spd
km/h
Gust
km/h
Spd
kts
Gust
kts
22/11:30pm 16.8 11.8 -1.3 29 7.6 N 15 20 8 11 1018.5 1018.6 0.0
22/11:00pm 17.4 12.0 -1.3 28 7.9 N 17 20 9 11 1018.7 1018.8 0.0
22/10:30pm 18.8 13.1 -1.1 26 8.5 N 19 24 10 13 1018.5 1018.6 0.0
22/10:00pm 19.0 13.2 -1.4 25 8.7 NNE 19 24 10 13 1018.3 1018.4 0.0
22/09:30pm 19.0 13.3 -0.9 26 8.6 NNE 19 24 10 13 1018.3 1018.4 0.0
22/09:00pm 19.1 12.8 -0.8 26 8.6 NNE 22 28 12 15 1018.3 1018.4 0.0
22/08:30pm 19.4 13.5 -1.1 25 8.8 NNE 20 24 11 13 1018.2 1018.3 0.0
22/08:00pm 19.8 14.1 -0.8 25 9.0 NNE 19 22 10 12 1018.1 1018.2 0.0
22/07:30pm 20.6 15.2 -1.2 23 9.5 NNE 17 22 9 12 1017.9 1018.0 0.0
22/07:00pm 21.7 15.8 -0.9 22 10.0 NNE 20 26 11 14 1017.7 1017.8 0.0
22/06:30pm 22.2 16.8 -1.1 21 10.3 N 17 20 9 11 1017.6 1017.7 0.0
22/06:00pm 23.4 18.4 -1.5 19 11.0 NNE 15 17 8 9 1017.3 1017.4 0.0
22/05:30pm 24.7 19.3 -1.2 18 11.7 N 17 22 9 12 1017.0 1017.1 0.0
22/05:00pm 25.5 19.2 -1.3 17 12.1 N 22 28 12 15 1016.7 1016.8 0.0
22/04:30pm 26.0 20.0 -1.7 16 12.5 NNW 20 28 11 15 1016.6 1016.6 0.0
22/04:00pm 25.9 20.0 -1.0 17 12.3 NNW 20 26 11 14 1016.7 1016.8 0.0
22/03:30pm 26.2 19.5 -0.8 17 12.4 N 24 30 13 16 1016.7 1016.8 0.0
22/03:00pm 25.9 19.2 -1.0 17 12.3 NNW 24 33 13 18 1016.9 1017.0 0.0
22/02:30pm 25.6 18.9 -1.2 17 12.2 N 24 33 13 18 1017.2 1017.3 0.0
22/02:00pm 25.5 18.5 -0.5 18 12.0 N 26 33 14 18 1017.5 1017.6 0.0
22/01:30pm 25.0 17.9 -0.9 18 11.8 N 26 35 14 19 1017.9 1018.0 0.0
22/01:00pm 23.6 17.0 -0.6 20 10.9 NNW 24 32 13 17 1018.6 1018.7 0.0
22/12:30pm 23.1 16.5 -0.4 21 10.6 NNW 24 33 13 18 1019.3 1019.4 0.0
22/12:00pm 21.7 14.4 -0.3 23 9.8 NNW 28 35 15 19 1020.0 1020.0 0.0
22/11:30am 20.1 12.0 -0.5 25 9.0 NNW 32 41 17 22 1020.6 1020.6 0.0
22/11:00am 19.1 11.8 -0.3 27 8.5 NNW 28 35 15 19 1020.9 1020.9 0.0
22/10:30am 18.5 11.2 -0.3 28 8.2 NNW 28 35 15 19 1021.4 1021.4 0.0
22/10:00am 16.9 9.5 -0.8 30 7.5 NNW 28 37 15 20 1021.8 1021.8 0.0
22/09:30am 15.6 8.6 -0.6 33 6.8 N 26 32 14 17 1021.1 1021.1 0.0
22/09:00am 13.1 7.8 -0.5 39 5.6 NNW 17 22 9 12 1021.2 1021.2 0.0
22/08:30am 12.5 7.2 -0.4 41 5.3 NNW 17 22 9 12 1021.2 1021.2 0.0
22/08:00am 11.4 6.1 -0.4 44 4.8 N 17 22 9 12 1020.7 1020.7 0.0
22/07:30am 9.0 4.4 -0.9 50 3.9 N 13 17 7 9 1020.6 1020.6 0.0
22/07:00am 8.9 4.0 -0.7 51 3.8 N 15 17 8 9 1020.5 1020.5 0.0
22/06:30am 8.7 3.7 -0.9 51 3.7 N 15 19 8 10 1020.7 1020.7 0.0
22/06:00am 8.7 4.1 -1.1 50 3.8 N 13 17 7 9 1020.6 1020.6 0.0
22/05:30am 9.0 4.8 -1.1 49 3.9 NE 11 15 6 8 1020.4 1020.4 0.0
22/05:00am 10.1 6.9 -0.7 47 4.3 NNW 6 7 3 4 1020.2 1020.2 0.0
22/04:30am 9.9 5.3 -1.2 46 4.3 NNW 13 17 7 9 1020.1 1020.1 0.0
22/04:00am 11.4 5.6 -0.4 44 4.8 NNE 20 24 11 13 1020.0 1020.0 0.0
22/03:30am 11.8 6.0 -0.4 43 5.0 NNE 20 28 11 15 1019.8 1019.8 0.0
22/03:00am 12.3 5.7 -0.6 41 5.2 NNE 24 30 13 16 1020.1 1020.1 0.0
22/02:30am 12.7 5.7 -0.2 41 5.3 NNE 26 33 14 18 1020.1 1020.1 0.0
22/02:00am 12.5 6.3 0.0 42 5.2 NNE 22 30 12 16 1020.2 1020.2 0.0
22/01:30am 12.8 7.0 -0.4 40 5.4 NNE 20 26 11 14 1020.6 1020.6 0.0
22/01:00am 13.3 7.1 -0.3 39 5.6 NNE 22 28 12 15 1020.7 1020.7 0.0
22/12:30am 13.4 6.8 -0.6 38 5.8 NNE 24 28 13 15 1020.8 1020.8 0.0
22/12:00am 14.2 7.2 -0.6 36 6.1 NE 26 30 14 16 1020.7 1020.7 0.0
 
Date/Time
CST
Temp
°C
App
Temp
°C
Dew
Point
°C
Rel
Hum
%
Delta-T
°C
Wind Press
QNH
hPa
Press
MSL
hPa
Rain since
9am
mm
Dir  Spd
km/h
Gust
km/h
Spd
kts
Gust
kts
21/11:30pm 14.1 7.5 -0.7 36 6.1 NE 24 30 13 16 1020.7 1020.7 0.0
21/11:00pm 14.3 7.3 -0.5 36 6.2 NE 26 30 14 16 1020.7 1020.7 0.0
21/10:30pm 14.1 7.9 -0.4 37 6.0 NE 22 26 12 14 1020.9 1020.9 0.0
21/10:00pm 13.2 7.9 -0.4 39 5.6 NE 17 19 9 10 1021.0 1021.0 0.0
21/09:30pm 13.0 8.1 -0.6 39 5.6 NE 15 17 8 9 1021.0 1021.0 0.0
21/09:00pm 13.4 8.9 -0.6 38 5.8 NE 13 15 7 8 1020.8 1020.8 0.0
21/08:30pm 14.3 9.4 -0.5 36 6.2 NE 15 17 8 9 1020.6 1020.6 0.0
21/08:00pm 14.9 10.0 -0.4 35 6.4 NE 15 17 8 9 1020.2 1020.2 0.0
21/07:30pm 15.5 10.6 -0.7 33 6.8 NE 15 15 8 8 1019.9 1019.9 0.0
21/07:00pm 17.4 12.9 -0.3 30 7.6 NNE 13 15 7 8 1019.5 1019.5 0.0
21/06:30pm 18.3 14.2 -0.5 28 8.1 NNE 11 13 6 7 1018.9 1019.0 0.0
21/06:00pm 19.9 15.4 -0.1 26 8.8 NE 13 17 7 9 1018.6 1018.7 0.0
21/05:30pm 21.6 16.0 0.2 24 9.7 NE 19 26 10 14 1018.2 1018.3 0.0
21/05:00pm 22.1 16.9 0.0 23 10.0 NE 17 20 9 11 1018.0 1018.1 0.0
21/04:30pm 23.0 18.2 0.2 22 10.4 NE 15 22 8 12 1018.1 1018.2 0.0
21/04:00pm 22.6 17.7 -0.2 22 10.3 NE 15 20 8 11 1018.0 1018.1 0.0
21/03:30pm 22.8 19.1 0.0 22 10.3 NNE 9 17 5 9 1018.1 1018.2 0.0
21/03:00pm 22.6 18.1 -0.2 22 10.3 NNE 13 20 7 11 1018.2 1018.3 0.0
21/02:30pm 22.4 17.9 -0.3 22 10.2 NNE 13 19 7 10 1018.5 1018.6 0.0
21/02:00pm 21.8 16.6 -0.2 23 9.9 N 17 22 9 12 1018.9 1019.0 0.0
21/01:30pm 21.5 15.6 -0.5 23 9.8 N 20 26 11 14 1019.3 1019.4 0.0
21/01:00pm 21.1 15.3 -0.2 24 9.5 N 20 26 11 14 1020.1 1020.1 0.0
21/12:30pm 20.7 14.6 0.5 26 9.1 N 22 32 12 17 1020.8 1020.8 0.0

Other Formats:

Comma delimited format used in spreadsheet applications
http://www.bom.gov.au/fwo/IDS60801/IDS60801.94476.axf

JavaScript Object Notation format (JSON) in row-major order
http://www.bom.gov.au/fwo/IDS60801/IDS60801.94476.json